sensor_id;sensor_type;location;lat;lon;timestamp;P1;durP1;ratioP1;P2;durP2;ratioP2
60665;SDS011;59128;44.642;21.188;2022-11-27T00:02:07;58.05;;;41.67;;
60665;SDS011;59128;44.642;21.188;2022-11-27T00:04:33;61.17;;;43.92;;
60665;SDS011;59128;44.642;21.188;2022-11-27T00:06:59;55.42;;;40.20;;
60665;SDS011;59128;44.642;21.188;2022-11-27T00:09:26;56.20;;;40.00;;
60665;SDS011;59128;44.642;21.188;2022-11-27T00:11:52;55.42;;;39.78;;
60665;SDS011;59128;44.642;21.188;2022-11-27T00:14:18;59.75;;;41.38;;
60665;SDS011;59128;44.642;21.188;2022-11-27T00:16:44;63.80;;;43.85;;
60665;SDS011;59128;44.642;21.188;2022-11-27T00:19:10;64.22;;;44.15;;
60665;SDS011;59128;44.642;21.188;2022-11-27T00:21:36;70.37;;;48.07;;
60665;SDS011;59128;44.642;21.188;2022-11-27T00:24:04;66.03;;;45.00;;
60665;SDS011;59128;44.642;21.188;2022-11-27T00:26:30;64.53;;;44.58;;
60665;SDS011;59128;44.642;21.188;2022-11-27T00:28:56;61.67;;;41.92;;
60665;SDS011;59128;44.642;21.188;2022-11-27T00:31:24;63.08;;;43.00;;
60665;SDS011;59128;44.642;21.188;2022-11-27T00:33:55;66.15;;;44.20;;
60665;SDS011;59128;44.642;21.188;2022-11-27T00:36:22;64.50;;;44.65;;
60665;SDS011;59128;44.642;21.188;2022-11-27T00:38:48;64.47;;;42.28;;
60665;SDS011;59128;44.642;21.188;2022-11-27T00:41:16;67.00;;;44.22;;
60665;SDS011;59128;44.642;21.188;2022-11-27T00:43:42;76.85;;;48.72;;
60665;SDS011;59128;44.642;21.188;2022-11-27T00:46:08;82.38;;;49.85;;
60665;SDS011;59128;44.642;21.188;2022-11-27T00:48:34;87.55;;;54.13;;
60665;SDS011;59128;44.642;21.188;2022-11-27T00:51:02;92.95;;;56.97;;
60665;SDS011;59128;44.642;21.188;2022-11-27T00:53:29;92.57;;;53.97;;
60665;SDS011;59128;44.642;21.188;2022-11-27T00:55:55;96.35;;;57.70;;
60665;SDS011;59128;44.642;21.188;2022-11-27T00:58:21;96.43;;;57.35;;
60665;SDS011;59128;44.642;21.188;2022-11-27T01:01:00;101.28;;;58.30;;
60665;SDS011;59128;44.642;21.188;2022-11-27T01:03:27;99.47;;;58.05;;
60665;SDS011;59128;44.642;21.188;2022-11-27T01:05:53;97.00;;;57.65;;
60665;SDS011;59128;44.642;21.188;2022-11-27T01:08:20;98.43;;;55.80;;
60665;SDS011;59128;44.642;21.188;2022-11-27T01:10:49;93.32;;;53.15;;
60665;SDS011;59128;44.642;21.188;2022-11-27T01:13:16;97.05;;;54.67;;
60665;SDS011;59128;44.642;21.188;2022-11-27T01:15:42;93.93;;;54.08;;
60665;SDS011;59128;44.642;21.188;2022-11-27T01:18:08;99.68;;;56.15;;
60665;SDS011;59128;44.642;21.188;2022-11-27T01:20:38;94.50;;;52.17;;
60665;SDS011;59128;44.642;21.188;2022-11-27T01:23:05;97.45;;;55.05;;
60665;SDS011;59128;44.642;21.188;2022-11-27T01:25:33;100.82;;;56.95;;
60665;SDS011;59128;44.642;21.188;2022-11-27T01:27:59;97.15;;;56.65;;
60665;SDS011;59128;44.642;21.188;2022-11-27T01:30:25;104.10;;;59.05;;
60665;SDS011;59128;44.642;21.188;2022-11-27T01:32:51;99.40;;;57.47;;
60665;SDS011;59128;44.642;21.188;2022-11-27T01:35:17;104.10;;;60.13;;
60665;SDS011;59128;44.642;21.188;2022-11-27T01:37:43;97.50;;;58.38;;
60665;SDS011;59128;44.642;21.188;2022-11-27T01:40:09;96.20;;;58.10;;
60665;SDS011;59128;44.642;21.188;2022-11-27T01:42:36;98.50;;;57.83;;
60665;SDS011;59128;44.642;21.188;2022-11-27T01:45:02;96.83;;;56.77;;
60665;SDS011;59128;44.642;21.188;2022-11-27T01:47:39;94.65;;;56.30;;
60665;SDS011;59128;44.642;21.188;2022-11-27T01:50:10;94.70;;;56.70;;
60665;SDS011;59128;44.642;21.188;2022-11-27T01:52:38;88.88;;;53.97;;
60665;SDS011;59128;44.642;21.188;2022-11-27T01:55:08;95.33;;;55.80;;
60665;SDS011;59128;44.642;21.188;2022-11-27T01:57:48;89.43;;;52.67;;
60665;SDS011;59128;44.642;21.188;2022-11-27T02:00:15;88.90;;;51.15;;
60665;SDS011;59128;44.642;21.188;2022-11-27T02:02:41;90.05;;;52.08;;
60665;SDS011;59128;44.642;21.188;2022-11-27T02:05:09;93.28;;;56.25;;
60665;SDS011;59128;44.642;21.188;2022-11-27T02:07:35;103.38;;;60.53;;
60665;SDS011;59128;44.642;21.188;2022-11-27T02:10:01;99.25;;;58.45;;
60665;SDS011;59128;44.642;21.188;2022-11-27T02:18:20;88.00;;;53.58;;
60665;SDS011;59128;44.642;21.188;2022-11-27T02:20:52;91.78;;;54.42;;
60665;SDS011;59128;44.642;21.188;2022-11-27T02:29:07;93.13;;;54.20;;
60665;SDS011;59128;44.642;21.188;2022-11-27T02:31:14;97.28;;;56.20;;
60665;SDS011;59128;44.642;21.188;2022-11-27T02:33:42;95.23;;;56.37;;
60665;SDS011;59128;44.642;21.188;2022-11-27T02:36:11;91.77;;;54.53;;
60665;SDS011;59128;44.642;21.188;2022-11-27T02:38:40;93.03;;;55.20;;
60665;SDS011;59128;44.642;21.188;2022-11-27T02:41:13;87.78;;;52.78;;
60665;SDS011;59128;44.642;21.188;2022-11-27T02:43:44;87.13;;;52.27;;
60665;SDS011;59128;44.642;21.188;2022-11-27T02:46:11;85.37;;;50.60;;
60665;SDS011;59128;44.642;21.188;2022-11-27T02:51:10;87.97;;;53.67;;
60665;SDS011;59128;44.642;21.188;2022-11-27T02:53:38;91.85;;;57.40;;
60665;SDS011;59128;44.642;21.188;2022-11-27T02:56:08;88.70;;;55.92;;
60665;SDS011;59128;44.642;21.188;2022-11-27T02:58:34;86.72;;;54.45;;
60665;SDS011;59128;44.642;21.188;2022-11-27T03:01:02;80.43;;;50.77;;
60665;SDS011;59128;44.642;21.188;2022-11-27T03:03:31;82.43;;;51.80;;
60665;SDS011;59128;44.642;21.188;2022-11-27T03:06:00;91.57;;;55.67;;
60665;SDS011;59128;44.642;21.188;2022-11-27T03:08:32;94.22;;;57.63;;
60665;SDS011;59128;44.642;21.188;2022-11-27T03:11:07;94.20;;;57.60;;
60665;SDS011;59128;44.642;21.188;2022-11-27T03:13:34;89.83;;;55.60;;
60665;SDS011;59128;44.642;21.188;2022-11-27T03:16:09;95.10;;;56.50;;
60665;SDS011;59128;44.642;21.188;2022-11-27T03:18:59;92.18;;;55.03;;
60665;SDS011;59128;44.642;21.188;2022-11-27T03:23:48;88.18;;;51.92;;
60665;SDS011;59128;44.642;21.188;2022-11-27T03:26:14;88.20;;;50.95;;
60665;SDS011;59128;44.642;21.188;2022-11-27T03:28:42;89.72;;;52.75;;
60665;SDS011;59128;44.642;21.188;2022-11-27T03:31:08;90.25;;;52.95;;
60665;SDS011;59128;44.642;21.188;2022-11-27T03:33:34;91.70;;;53.38;;
60665;SDS011;59128;44.642;21.188;2022-11-27T03:36:01;90.10;;;52.83;;
60665;SDS011;59128;44.642;21.188;2022-11-27T03:38:27;88.18;;;51.95;;
60665;SDS011;59128;44.642;21.188;2022-11-27T03:41:01;89.23;;;54.10;;
60665;SDS011;59128;44.642;21.188;2022-11-27T03:43:30;88.88;;;53.92;;
60665;SDS011;59128;44.642;21.188;2022-11-27T03:45:59;92.13;;;54.75;;
60665;SDS011;59128;44.642;21.188;2022-11-27T03:48:46;91.40;;;56.50;;
60665;SDS011;59128;44.642;21.188;2022-11-27T03:51:16;87.32;;;51.95;;
60665;SDS011;59128;44.642;21.188;2022-11-27T03:53:51;88.15;;;52.15;;
60665;SDS011;59128;44.642;21.188;2022-11-27T03:58:49;87.85;;;52.80;;
60665;SDS011;59128;44.642;21.188;2022-11-27T04:01:16;90.45;;;53.28;;
60665;SDS011;59128;44.642;21.188;2022-11-27T04:03:44;88.68;;;52.08;;
60665;SDS011;59128;44.642;21.188;2022-11-27T04:06:10;92.07;;;53.53;;
60665;SDS011;59128;44.642;21.188;2022-11-27T04:08:36;89.00;;;52.38;;
60665;SDS011;59128;44.642;21.188;2022-11-27T04:11:02;90.07;;;52.47;;
60665;SDS011;59128;44.642;21.188;2022-11-27T04:13:29;93.18;;;54.50;;
60665;SDS011;59128;44.642;21.188;2022-11-27T04:15:55;94.78;;;55.60;;
60665;SDS011;59128;44.642;21.188;2022-11-27T04:18:21;100.10;;;56.42;;
60665;SDS011;59128;44.642;21.188;2022-11-27T04:20:47;90.38;;;52.30;;
60665;SDS011;59128;44.642;21.188;2022-11-27T04:23:13;91.60;;;52.90;;
60665;SDS011;59128;44.642;21.188;2022-11-27T04:25:39;87.22;;;50.38;;
60665;SDS011;59128;44.642;21.188;2022-11-27T04:28:05;86.80;;;49.95;;
60665;SDS011;59128;44.642;21.188;2022-11-27T04:30:31;99.73;;;56.73;;
60665;SDS011;59128;44.642;21.188;2022-11-27T04:32:57;104.20;;;58.47;;
60665;SDS011;59128;44.642;21.188;2022-11-27T04:35:23;84.68;;;50.70;;
60665;SDS011;59128;44.642;21.188;2022-11-27T04:37:49;81.03;;;49.38;;
60665;SDS011;59128;44.642;21.188;2022-11-27T04:40:15;80.75;;;48.72;;
60665;SDS011;59128;44.642;21.188;2022-11-27T04:42:42;79.55;;;48.45;;
60665;SDS011;59128;44.642;21.188;2022-11-27T04:45:08;78.75;;;48.83;;
60665;SDS011;59128;44.642;21.188;2022-11-27T04:47:34;82.57;;;49.10;;
60665;SDS011;59128;44.642;21.188;2022-11-27T04:50:00;78.95;;;48.53;;
60665;SDS011;59128;44.642;21.188;2022-11-27T04:52:26;84.40;;;50.42;;
60665;SDS011;59128;44.642;21.188;2022-11-27T04:54:52;79.15;;;48.92;;
60665;SDS011;59128;44.642;21.188;2022-11-27T04:57:18;81.28;;;49.97;;
60665;SDS011;59128;44.642;21.188;2022-11-27T04:59:44;87.65;;;53.10;;
60665;SDS011;59128;44.642;21.188;2022-11-27T05:02:11;84.87;;;50.10;;
60665;SDS011;59128;44.642;21.188;2022-11-27T05:04:37;83.40;;;50.72;;
60665;SDS011;59128;44.642;21.188;2022-11-27T05:07:03;83.15;;;51.63;;
60665;SDS011;59128;44.642;21.188;2022-11-27T05:09:29;80.88;;;48.47;;
60665;SDS011;59128;44.642;21.188;2022-11-27T05:11:55;76.70;;;47.30;;
60665;SDS011;59128;44.642;21.188;2022-11-27T05:14:21;75.22;;;46.15;;
60665;SDS011;59128;44.642;21.188;2022-11-27T05:16:53;71.90;;;44.97;;
60665;SDS011;59128;44.642;21.188;2022-11-27T05:19:21;72.28;;;46.00;;
60665;SDS011;59128;44.642;21.188;2022-11-27T05:21:47;76.22;;;48.85;;
60665;SDS011;59128;44.642;21.188;2022-11-27T05:24:14;78.85;;;50.30;;
60665;SDS011;59128;44.642;21.188;2022-11-27T05:26:41;80.03;;;51.00;;
60665;SDS011;59128;44.642;21.188;2022-11-27T05:29:08;77.07;;;48.70;;
60665;SDS011;59128;44.642;21.188;2022-11-27T05:31:34;72.25;;;45.05;;
60665;SDS011;59128;44.642;21.188;2022-11-27T05:34:00;75.20;;;46.95;;
60665;SDS011;59128;44.642;21.188;2022-11-27T05:36:27;72.78;;;46.05;;
60665;SDS011;59128;44.642;21.188;2022-11-27T05:38:53;75.75;;;46.38;;
60665;SDS011;59128;44.642;21.188;2022-11-27T05:41:19;76.18;;;46.53;;
60665;SDS011;59128;44.642;21.188;2022-11-27T05:43:45;73.10;;;46.10;;
60665;SDS011;59128;44.642;21.188;2022-11-27T05:46:12;73.05;;;46.38;;
60665;SDS011;59128;44.642;21.188;2022-11-27T05:48:38;72.93;;;46.95;;
60665;SDS011;59128;44.642;21.188;2022-11-27T05:51:05;76.15;;;47.25;;
60665;SDS011;59128;44.642;21.188;2022-11-27T05:53:31;76.87;;;49.23;;
60665;SDS011;59128;44.642;21.188;2022-11-27T05:56:00;78.82;;;50.88;;
60665;SDS011;59128;44.642;21.188;2022-11-27T05:58:27;87.90;;;56.33;;
60665;SDS011;59128;44.642;21.188;2022-11-27T06:00:53;88.55;;;55.58;;
60665;SDS011;59128;44.642;21.188;2022-11-27T06:03:19;88.00;;;53.60;;
60665;SDS011;59128;44.642;21.188;2022-11-27T06:05:45;86.22;;;52.78;;
60665;SDS011;59128;44.642;21.188;2022-11-27T06:08:11;87.05;;;53.38;;
60665;SDS011;59128;44.642;21.188;2022-11-27T06:10:37;91.28;;;57.38;;
60665;SDS011;59128;44.642;21.188;2022-11-27T06:13:04;82.70;;;52.40;;
60665;SDS011;59128;44.642;21.188;2022-11-27T06:15:30;81.80;;;49.20;;
60665;SDS011;59128;44.642;21.188;2022-11-27T06:17:56;113.43;;;72.05;;
60665;SDS011;59128;44.642;21.188;2022-11-27T06:20:22;96.25;;;59.67;;
60665;SDS011;59128;44.642;21.188;2022-11-27T06:22:48;82.67;;;53.03;;
60665;SDS011;59128;44.642;21.188;2022-11-27T06:25:14;82.85;;;51.67;;
60665;SDS011;59128;44.642;21.188;2022-11-27T06:27:40;81.93;;;51.67;;
60665;SDS011;59128;44.642;21.188;2022-11-27T06:30:07;79.57;;;50.50;;
60665;SDS011;59128;44.642;21.188;2022-11-27T06:32:33;82.40;;;52.30;;
60665;SDS011;59128;44.642;21.188;2022-11-27T06:34:59;85.78;;;51.85;;
60665;SDS011;59128;44.642;21.188;2022-11-27T06:37:25;81.68;;;51.03;;
60665;SDS011;59128;44.642;21.188;2022-11-27T06:39:51;83.53;;;50.28;;
60665;SDS011;59128;44.642;21.188;2022-11-27T06:42:17;86.28;;;51.97;;
60665;SDS011;59128;44.642;21.188;2022-11-27T06:44:45;94.18;;;62.15;;
60665;SDS011;59128;44.642;21.188;2022-11-27T06:47:11;81.97;;;49.33;;
60665;SDS011;59128;44.642;21.188;2022-11-27T06:49:37;85.82;;;52.67;;
60665;SDS011;59128;44.642;21.188;2022-11-27T06:52:04;86.43;;;53.17;;
60665;SDS011;59128;44.642;21.188;2022-11-27T06:54:30;89.45;;;57.30;;
60665;SDS011;59128;44.642;21.188;2022-11-27T06:56:56;90.10;;;56.55;;
60665;SDS011;59128;44.642;21.188;2022-11-27T06:59:22;138.65;;;106.45;;
60665;SDS011;59128;44.642;21.188;2022-11-27T07:01:48;136.90;;;109.78;;
60665;SDS011;59128;44.642;21.188;2022-11-27T07:04:15;242.70;;;183.93;;
60665;SDS011;59128;44.642;21.188;2022-11-27T07:06:41;134.75;;;89.80;;
60665;SDS011;59128;44.642;21.188;2022-11-27T07:09:07;194.95;;;145.30;;
60665;SDS011;59128;44.642;21.188;2022-11-27T07:11:34;359.60;;;282.97;;
60665;SDS011;59128;44.642;21.188;2022-11-27T07:14:01;276.50;;;221.93;;
60665;SDS011;59128;44.642;21.188;2022-11-27T07:16:28;140.90;;;106.00;;
60665;SDS011;59128;44.642;21.188;2022-11-27T07:18:56;112.70;;;80.37;;
60665;SDS011;59128;44.642;21.188;2022-11-27T07:21:23;113.13;;;84.33;;
60665;SDS011;59128;44.642;21.188;2022-11-27T07:23:49;117.30;;;85.57;;
60665;SDS011;59128;44.642;21.188;2022-11-27T07:26:19;131.00;;;93.97;;
60665;SDS011;59128;44.642;21.188;2022-11-27T07:28:46;206.03;;;155.57;;
60665;SDS011;59128;44.642;21.188;2022-11-27T07:31:13;268.92;;;220.13;;
60665;SDS011;59128;44.642;21.188;2022-11-27T07:33:39;209.95;;;162.93;;
60665;SDS011;59128;44.642;21.188;2022-11-27T07:36:07;124.68;;;84.55;;
60665;SDS011;59128;44.642;21.188;2022-11-27T07:38:33;373.77;;;239.35;;
60665;SDS011;59128;44.642;21.188;2022-11-27T07:41:00;88.93;;;54.40;;
60665;SDS011;59128;44.642;21.188;2022-11-27T07:43:26;120.90;;;76.82;;
60665;SDS011;59128;44.642;21.188;2022-11-27T07:45:53;94.93;;;57.03;;
60665;SDS011;59128;44.642;21.188;2022-11-27T07:48:19;97.82;;;60.55;;
60665;SDS011;59128;44.642;21.188;2022-11-27T07:50:45;106.07;;;66.93;;
60665;SDS011;59128;44.642;21.188;2022-11-27T07:53:11;99.75;;;61.92;;
60665;SDS011;59128;44.642;21.188;2022-11-27T07:55:37;83.40;;;52.25;;
60665;SDS011;59128;44.642;21.188;2022-11-27T07:58:04;81.18;;;50.05;;
60665;SDS011;59128;44.642;21.188;2022-11-27T08:00:30;79.15;;;48.15;;
60665;SDS011;59128;44.642;21.188;2022-11-27T08:02:57;78.07;;;48.88;;
60665;SDS011;59128;44.642;21.188;2022-11-27T08:05:23;82.13;;;50.10;;
60665;SDS011;59128;44.642;21.188;2022-11-27T08:07:49;86.22;;;50.63;;
60665;SDS011;59128;44.642;21.188;2022-11-27T08:10:15;114.68;;;79.65;;
60665;SDS011;59128;44.642;21.188;2022-11-27T08:12:41;78.13;;;51.22;;
60665;SDS011;59128;44.642;21.188;2022-11-27T08:15:08;69.60;;;42.70;;
60665;SDS011;59128;44.642;21.188;2022-11-27T08:17:34;93.32;;;66.93;;
60665;SDS011;59128;44.642;21.188;2022-11-27T08:20:00;70.70;;;44.53;;
60665;SDS011;59128;44.642;21.188;2022-11-27T08:22:26;69.07;;;43.83;;
60665;SDS011;59128;44.642;21.188;2022-11-27T08:24:52;65.00;;;42.05;;
60665;SDS011;59128;44.642;21.188;2022-11-27T08:27:18;65.72;;;42.03;;
60665;SDS011;59128;44.642;21.188;2022-11-27T08:29:45;57.78;;;35.70;;
60665;SDS011;59128;44.642;21.188;2022-11-27T08:32:12;50.78;;;32.40;;
60665;SDS011;59128;44.642;21.188;2022-11-27T08:34:38;82.63;;;58.55;;
60665;SDS011;59128;44.642;21.188;2022-11-27T08:37:04;69.90;;;47.72;;
60665;SDS011;59128;44.642;21.188;2022-11-27T08:39:31;58.90;;;38.00;;
60665;SDS011;59128;44.642;21.188;2022-11-27T08:41:57;66.28;;;43.10;;
60665;SDS011;59128;44.642;21.188;2022-11-27T08:44:23;61.55;;;37.92;;
60665;SDS011;59128;44.642;21.188;2022-11-27T08:46:49;51.03;;;31.63;;
60665;SDS011;59128;44.642;21.188;2022-11-27T08:49:16;56.88;;;35.95;;
60665;SDS011;59128;44.642;21.188;2022-11-27T08:51:42;53.22;;;35.75;;
60665;SDS011;59128;44.642;21.188;2022-11-27T08:54:08;49.05;;;32.75;;
60665;SDS011;59128;44.642;21.188;2022-11-27T08:56:34;69.28;;;46.63;;
60665;SDS011;59128;44.642;21.188;2022-11-27T08:59:00;53.97;;;34.28;;
60665;SDS011;59128;44.642;21.188;2022-11-27T09:01:30;49.58;;;31.00;;
60665;SDS011;59128;44.642;21.188;2022-11-27T09:03:56;45.58;;;28.73;;
60665;SDS011;59128;44.642;21.188;2022-11-27T09:06:24;46.58;;;30.10;;
60665;SDS011;59128;44.642;21.188;2022-11-27T09:08:54;48.95;;;33.05;;
60665;SDS011;59128;44.642;21.188;2022-11-27T09:11:20;48.90;;;29.92;;
60665;SDS011;59128;44.642;21.188;2022-11-27T09:13:46;52.72;;;32.92;;
60665;SDS011;59128;44.642;21.188;2022-11-27T09:16:13;50.50;;;32.95;;
60665;SDS011;59128;44.642;21.188;2022-11-27T09:18:39;63.67;;;46.15;;
60665;SDS011;59128;44.642;21.188;2022-11-27T09:21:06;45.28;;;29.25;;
60665;SDS011;59128;44.642;21.188;2022-11-27T09:23:33;42.72;;;26.75;;
60665;SDS011;59128;44.642;21.188;2022-11-27T09:26:00;47.70;;;31.95;;
60665;SDS011;59128;44.642;21.188;2022-11-27T09:28:27;46.23;;;29.50;;
60665;SDS011;59128;44.642;21.188;2022-11-27T09:30:53;47.65;;;30.92;;
60665;SDS011;59128;44.642;21.188;2022-11-27T09:33:20;49.90;;;31.63;;
60665;SDS011;59128;44.642;21.188;2022-11-27T09:35:48;45.92;;;29.55;;
60665;SDS011;59128;44.642;21.188;2022-11-27T09:38:14;46.17;;;28.65;;
60665;SDS011;59128;44.642;21.188;2022-11-27T09:43:30;58.75;;;38.55;;
60665;SDS011;59128;44.642;21.188;2022-11-27T09:46:00;163.87;;;94.23;;
60665;SDS011;59128;44.642;21.188;2022-11-27T09:48:33;47.75;;;30.52;;
60665;SDS011;59128;44.642;21.188;2022-11-27T09:51:01;51.00;;;31.50;;
60665;SDS011;59128;44.642;21.188;2022-11-27T09:53:32;54.03;;;33.67;;
60665;SDS011;59128;44.642;21.188;2022-11-27T09:56:03;54.80;;;33.72;;
60665;SDS011;59128;44.642;21.188;2022-11-27T09:58:38;58.60;;;35.22;;
60665;SDS011;59128;44.642;21.188;2022-11-27T10:01:08;60.65;;;39.53;;
60665;SDS011;59128;44.642;21.188;2022-11-27T10:03:35;51.83;;;34.90;;
60665;SDS011;59128;44.642;21.188;2022-11-27T10:08:47;56.33;;;34.25;;
60665;SDS011;59128;44.642;21.188;2022-11-27T10:14:02;96.85;;;57.03;;
60665;SDS011;59128;44.642;21.188;2022-11-27T10:16:40;68.55;;;41.35;;
60665;SDS011;59128;44.642;21.188;2022-11-27T10:27:18;61.70;;;36.92;;
60665;SDS011;59128;44.642;21.188;2022-11-27T10:29:52;59.97;;;36.53;;
60665;SDS011;59128;44.642;21.188;2022-11-27T10:32:20;54.67;;;34.78;;
60665;SDS011;59128;44.642;21.188;2022-11-27T10:34:49;51.78;;;31.95;;
60665;SDS011;59128;44.642;21.188;2022-11-27T10:37:21;50.28;;;32.40;;
60665;SDS011;59128;44.642;21.188;2022-11-27T10:39:49;51.38;;;32.90;;
60665;SDS011;59128;44.642;21.188;2022-11-27T10:42:41;54.13;;;33.80;;
60665;SDS011;59128;44.642;21.188;2022-11-27T10:47:45;46.42;;;28.98;;
60665;SDS011;59128;44.642;21.188;2022-11-27T10:50:15;47.00;;;28.73;;
60665;SDS011;59128;44.642;21.188;2022-11-27T10:52:45;53.53;;;31.53;;
60665;SDS011;59128;44.642;21.188;2022-11-27T10:55:15;52.28;;;32.33;;
60665;SDS011;59128;44.642;21.188;2022-11-27T10:57:49;55.60;;;34.35;;
60665;SDS011;59128;44.642;21.188;2022-11-27T11:00:22;50.60;;;31.02;;
60665;SDS011;59128;44.642;21.188;2022-11-27T11:02:57;51.90;;;31.25;;
60665;SDS011;59128;44.642;21.188;2022-11-27T11:05:25;52.47;;;32.00;;
60665;SDS011;59128;44.642;21.188;2022-11-27T11:08:13;51.08;;;32.30;;
60665;SDS011;59128;44.642;21.188;2022-11-27T11:10:43;55.22;;;33.65;;
60665;SDS011;59128;44.642;21.188;2022-11-27T11:13:17;51.42;;;31.67;;
60665;SDS011;59128;44.642;21.188;2022-11-27T11:15:48;52.05;;;31.33;;
60665;SDS011;59128;44.642;21.188;2022-11-27T11:18:18;53.57;;;31.03;;
60665;SDS011;59128;44.642;21.188;2022-11-27T11:20:48;51.43;;;29.80;;
60665;SDS011;59128;44.642;21.188;2022-11-27T11:23:17;56.60;;;35.15;;
60665;SDS011;59128;44.642;21.188;2022-11-27T11:25:52;58.25;;;34.97;;
60665;SDS011;59128;44.642;21.188;2022-11-27T11:28:20;49.28;;;31.00;;
60665;SDS011;59128;44.642;21.188;2022-11-27T11:30:54;51.97;;;32.17;;
60665;SDS011;59128;44.642;21.188;2022-11-27T11:33:21;52.38;;;32.00;;
60665;SDS011;59128;44.642;21.188;2022-11-27T11:35:51;56.50;;;33.42;;
60665;SDS011;59128;44.642;21.188;2022-11-27T11:38:18;78.43;;;49.72;;
60665;SDS011;59128;44.642;21.188;2022-11-27T11:40:56;104.72;;;62.42;;
60665;SDS011;59128;44.642;21.188;2022-11-27T11:43:24;179.52;;;96.88;;
60665;SDS011;59128;44.642;21.188;2022-11-27T11:45:50;77.38;;;46.00;;
60665;SDS011;59128;44.642;21.188;2022-11-27T11:48:24;70.82;;;42.92;;
60665;SDS011;59128;44.642;21.188;2022-11-27T11:50:54;83.05;;;50.53;;
60665;SDS011;59128;44.642;21.188;2022-11-27T11:58:28;52.58;;;34.15;;
60665;SDS011;59128;44.642;21.188;2022-11-27T12:14:17;40.58;;;27.10;;
60665;SDS011;59128;44.642;21.188;2022-11-27T12:16:54;45.03;;;30.13;;
60665;SDS011;59128;44.642;21.188;2022-11-27T12:40:03;44.88;;;28.38;;
60665;SDS011;59128;44.642;21.188;2022-11-27T12:42:41;43.58;;;28.27;;
60665;SDS011;59128;44.642;21.188;2022-11-27T12:45:14;43.53;;;29.75;;
60665;SDS011;59128;44.642;21.188;2022-11-27T12:47:43;40.63;;;27.95;;
60665;SDS011;59128;44.642;21.188;2022-11-27T12:53:02;37.30;;;25.60;;
60665;SDS011;59128;44.642;21.188;2022-11-27T12:55:35;44.97;;;28.85;;
60665;SDS011;59128;44.642;21.188;2022-11-27T12:58:04;39.47;;;26.50;;
60665;SDS011;59128;44.642;21.188;2022-11-27T13:00:33;45.45;;;30.10;;
60665;SDS011;59128;44.642;21.188;2022-11-27T13:05:49;37.55;;;26.20;;
60665;SDS011;59128;44.642;21.188;2022-11-27T13:11:15;40.00;;;27.30;;
60665;SDS011;59128;44.642;21.188;2022-11-27T13:13:50;44.28;;;31.77;;
60665;SDS011;59128;44.642;21.188;2022-11-27T13:18:50;39.55;;;26.40;;
60665;SDS011;59128;44.642;21.188;2022-11-27T13:21:18;41.58;;;27.33;;
60665;SDS011;59128;44.642;21.188;2022-11-27T13:23:46;43.47;;;28.13;;
60665;SDS011;59128;44.642;21.188;2022-11-27T13:26:14;44.38;;;28.42;;
60665;SDS011;59128;44.642;21.188;2022-11-27T13:28:43;44.28;;;28.90;;
60665;SDS011;59128;44.642;21.188;2022-11-27T13:31:20;43.72;;;29.15;;
60665;SDS011;59128;44.642;21.188;2022-11-27T13:33:47;48.33;;;30.65;;
60665;SDS011;59128;44.642;21.188;2022-11-27T13:36:18;49.17;;;31.00;;
60665;SDS011;59128;44.642;21.188;2022-11-27T13:38:50;45.63;;;29.15;;
60665;SDS011;59128;44.642;21.188;2022-11-27T13:41:24;45.93;;;28.17;;
60665;SDS011;59128;44.642;21.188;2022-11-27T13:43:54;44.55;;;29.27;;
60665;SDS011;59128;44.642;21.188;2022-11-27T13:48:47;48.58;;;31.40;;
60665;SDS011;59128;44.642;21.188;2022-11-27T13:51:21;52.83;;;34.20;;
60665;SDS011;59128;44.642;21.188;2022-11-27T13:53:47;49.63;;;30.42;;
60665;SDS011;59128;44.642;21.188;2022-11-27T13:56:13;58.97;;;36.08;;
60665;SDS011;59128;44.642;21.188;2022-11-27T13:58:40;56.25;;;35.83;;
60665;SDS011;59128;44.642;21.188;2022-11-27T14:03:39;50.90;;;31.60;;
60665;SDS011;59128;44.642;21.188;2022-11-27T14:06:21;51.05;;;31.90;;
60665;SDS011;59128;44.642;21.188;2022-11-27T14:08:50;51.72;;;32.63;;
60665;SDS011;59128;44.642;21.188;2022-11-27T14:11:26;51.97;;;31.13;;
60665;SDS011;59128;44.642;21.188;2022-11-27T14:13:52;53.45;;;31.85;;
60665;SDS011;59128;44.642;21.188;2022-11-27T14:18:52;50.05;;;30.75;;
60665;SDS011;59128;44.642;21.188;2022-11-27T14:21:38;50.17;;;31.85;;
60665;SDS011;59128;44.642;21.188;2022-11-27T14:26:51;51.27;;;30.83;;
60665;SDS011;59128;44.642;21.188;2022-11-27T14:29:21;48.40;;;30.80;;
60665;SDS011;59128;44.642;21.188;2022-11-27T14:31:55;46.97;;;29.13;;
60665;SDS011;59128;44.642;21.188;2022-11-27T14:34:28;43.08;;;27.83;;
60665;SDS011;59128;44.642;21.188;2022-11-27T14:36:54;43.42;;;28.05;;
60665;SDS011;59128;44.642;21.188;2022-11-27T14:39:21;44.03;;;29.15;;
60665;SDS011;59128;44.642;21.188;2022-11-27T14:42:03;46.35;;;29.15;;
60665;SDS011;59128;44.642;21.188;2022-11-27T14:44:30;45.83;;;29.65;;
60665;SDS011;59128;44.642;21.188;2022-11-27T14:46:58;59.28;;;36.67;;
60665;SDS011;59128;44.642;21.188;2022-11-27T14:49:26;62.17;;;40.63;;
60665;SDS011;59128;44.642;21.188;2022-11-27T14:51:52;63.05;;;40.13;;
60665;SDS011;59128;44.642;21.188;2022-11-27T14:54:22;63.75;;;39.10;;
60665;SDS011;59128;44.642;21.188;2022-11-27T14:56:49;58.33;;;39.38;;
60665;SDS011;59128;44.642;21.188;2022-11-27T14:59:16;67.50;;;44.80;;
60665;SDS011;59128;44.642;21.188;2022-11-27T15:01:43;75.07;;;49.78;;
60665;SDS011;59128;44.642;21.188;2022-11-27T15:04:27;106.33;;;72.57;;
60665;SDS011;59128;44.642;21.188;2022-11-27T15:06:53;125.03;;;90.68;;
60665;SDS011;59128;44.642;21.188;2022-11-27T15:09:21;106.30;;;75.13;;
60665;SDS011;59128;44.642;21.188;2022-11-27T15:11:52;98.90;;;70.82;;
60665;SDS011;59128;44.642;21.188;2022-11-27T15:14:18;97.40;;;67.90;;
60665;SDS011;59128;44.642;21.188;2022-11-27T15:16:45;78.38;;;55.78;;
60665;SDS011;59128;44.642;21.188;2022-11-27T15:19:18;72.82;;;49.63;;
60665;SDS011;59128;44.642;21.188;2022-11-27T15:21:47;70.90;;;48.17;;
60665;SDS011;59128;44.642;21.188;2022-11-27T15:24:25;73.35;;;50.22;;
60665;SDS011;59128;44.642;21.188;2022-11-27T15:26:53;74.15;;;50.58;;
60665;SDS011;59128;44.642;21.188;2022-11-27T15:29:37;88.32;;;62.70;;
60665;SDS011;59128;44.642;21.188;2022-11-27T15:32:25;112.63;;;81.80;;
60665;SDS011;59128;44.642;21.188;2022-11-27T15:34:50;132.15;;;89.60;;
60665;SDS011;59128;44.642;21.188;2022-11-27T15:37:23;115.80;;;78.77;;
60665;SDS011;59128;44.642;21.188;2022-11-27T15:39:51;123.55;;;81.30;;
60665;SDS011;59128;44.642;21.188;2022-11-27T15:42:17;134.90;;;90.45;;
60665;SDS011;59128;44.642;21.188;2022-11-27T15:44:44;123.63;;;83.07;;
60665;SDS011;59128;44.642;21.188;2022-11-27T15:47:24;90.38;;;61.20;;
60665;SDS011;59128;44.642;21.188;2022-11-27T15:49:51;76.05;;;50.83;;
60665;SDS011;59128;44.642;21.188;2022-11-27T15:52:17;70.37;;;47.27;;